sensor_id;sensor_type;location;lat;lon;timestamp;P1;durP1;ratioP1;P2;durP2;ratioP2
18661;SDS011;61528;49.456;11.098;2023-08-12T00:00:44;3.70;;;3.40;;
18661;SDS011;61528;49.456;11.098;2023-08-12T00:03:10;4.17;;;3.60;;
18661;SDS011;61528;49.456;11.098;2023-08-12T00:05:36;3.70;;;3.30;;
18661;SDS011;61528;49.456;11.098;2023-08-12T00:08:05;4.17;;;3.77;;
18661;SDS011;61528;49.456;11.098;2023-08-12T00:10:31;4.23;;;3.83;;
18661;SDS011;61528;49.456;11.098;2023-08-12T00:12:58;3.80;;;3.50;;
18661;SDS011;61528;49.456;11.098;2023-08-12T00:15:24;4.00;;;3.70;;
18661;SDS011;61528;49.456;11.098;2023-08-12T00:17:51;5.43;;;3.70;;
18661;SDS011;61528;49.456;11.098;2023-08-12T00:20:18;5.67;;;4.17;;
18661;SDS011;61528;49.456;11.098;2023-08-12T00:22:44;4.33;;;3.90;;
18661;SDS011;61528;49.456;11.098;2023-08-12T00:25:11;5.77;;;4.20;;
18661;SDS011;61528;49.456;11.098;2023-08-12T00:27:37;4.73;;;4.30;;
18661;SDS011;61528;49.456;11.098;2023-08-12T00:30:04;5.17;;;4.20;;
18661;SDS011;61528;49.456;11.098;2023-08-12T00:32:30;4.47;;;4.03;;
18661;SDS011;61528;49.456;11.098;2023-08-12T00:34:57;5.60;;;3.90;;
18661;SDS011;61528;49.456;11.098;2023-08-12T00:37:23;5.30;;;4.40;;
18661;SDS011;61528;49.456;11.098;2023-08-12T00:39:49;6.77;;;4.30;;
18661;SDS011;61528;49.456;11.098;2023-08-12T00:42:16;4.47;;;4.07;;
18661;SDS011;61528;49.456;11.098;2023-08-12T00:44:42;5.13;;;4.03;;
18661;SDS011;61528;49.456;11.098;2023-08-12T00:47:08;5.00;;;4.10;;
18661;SDS011;61528;49.456;11.098;2023-08-12T00:49:35;4.73;;;3.90;;
18661;SDS011;61528;49.456;11.098;2023-08-12T00:52:03;4.30;;;3.90;;
18661;SDS011;61528;49.456;11.098;2023-08-12T00:54:29;4.70;;;4.30;;
18661;SDS011;61528;49.456;11.098;2023-08-12T00:56:56;5.33;;;4.07;;
18661;SDS011;61528;49.456;11.098;2023-08-12T00:59:23;4.97;;;4.23;;
18661;SDS011;61528;49.456;11.098;2023-08-12T01:01:50;4.53;;;4.13;;
18661;SDS011;61528;49.456;11.098;2023-08-12T01:04:16;4.77;;;4.00;;
18661;SDS011;61528;49.456;11.098;2023-08-12T01:06:42;4.37;;;4.07;;
18661;SDS011;61528;49.456;11.098;2023-08-12T01:09:08;6.60;;;3.80;;
18661;SDS011;61528;49.456;11.098;2023-08-12T01:11:39;4.13;;;3.83;;
18661;SDS011;61528;49.456;11.098;2023-08-12T01:16:43;4.57;;;3.97;;
18661;SDS011;61528;49.456;11.098;2023-08-12T01:19:11;4.00;;;3.60;;
18661;SDS011;61528;49.456;11.098;2023-08-12T01:21:40;5.03;;;4.40;;
18661;SDS011;61528;49.456;11.098;2023-08-12T01:24:07;4.37;;;3.97;;
18661;SDS011;61528;49.456;11.098;2023-08-12T01:26:34;4.83;;;4.07;;
18661;SDS011;61528;49.456;11.098;2023-08-12T01:29:00;4.20;;;3.80;;
18661;SDS011;61528;49.456;11.098;2023-08-12T01:33:58;5.17;;;3.90;;
18661;SDS011;61528;49.456;11.098;2023-08-12T01:36:26;5.90;;;4.23;;
18661;SDS011;61528;49.456;11.098;2023-08-12T01:38:54;6.27;;;4.20;;
18661;SDS011;61528;49.456;11.098;2023-08-12T01:41:22;4.53;;;3.90;;
18661;SDS011;61528;49.456;11.098;2023-08-12T01:43:49;4.60;;;4.10;;
18661;SDS011;61528;49.456;11.098;2023-08-12T01:46:15;6.13;;;4.17;;
18661;SDS011;61528;49.456;11.098;2023-08-12T01:48:42;4.50;;;4.10;;
18661;SDS011;61528;49.456;11.098;2023-08-12T01:51:08;4.77;;;4.13;;
18661;SDS011;61528;49.456;11.098;2023-08-12T01:53:34;4.13;;;3.80;;
18661;SDS011;61528;49.456;11.098;2023-08-12T01:56:01;4.67;;;4.13;;
18661;SDS011;61528;49.456;11.098;2023-08-12T01:58:27;5.53;;;4.40;;
18661;SDS011;61528;49.456;11.098;2023-08-12T02:00:53;4.17;;;3.83;;
18661;SDS011;61528;49.456;11.098;2023-08-12T02:03:20;4.53;;;4.00;;
18661;SDS011;61528;49.456;11.098;2023-08-12T02:05:47;6.20;;;4.47;;
18661;SDS011;61528;49.456;11.098;2023-08-12T02:08:13;4.47;;;4.13;;
18661;SDS011;61528;49.456;11.098;2023-08-12T02:10:39;5.70;;;4.57;;
18661;SDS011;61528;49.456;11.098;2023-08-12T02:13:06;4.33;;;3.93;;
18661;SDS011;61528;49.456;11.098;2023-08-12T02:15:32;5.40;;;3.97;;
18661;SDS011;61528;49.456;11.098;2023-08-12T02:17:59;4.50;;;4.00;;
18661;SDS011;61528;49.456;11.098;2023-08-12T02:20:25;4.67;;;4.17;;
18661;SDS011;61528;49.456;11.098;2023-08-12T02:22:51;4.60;;;4.20;;
18661;SDS011;61528;49.456;11.098;2023-08-12T02:25:17;4.13;;;3.73;;
18661;SDS011;61528;49.456;11.098;2023-08-12T02:27:44;5.17;;;4.20;;
18661;SDS011;61528;49.456;11.098;2023-08-12T02:30:10;5.70;;;4.03;;
18661;SDS011;61528;49.456;11.098;2023-08-12T02:32:37;4.93;;;4.20;;
18661;SDS011;61528;49.456;11.098;2023-08-12T02:35:03;4.53;;;4.07;;
18661;SDS011;61528;49.456;11.098;2023-08-12T02:37:30;6.57;;;4.50;;
18661;SDS011;61528;49.456;11.098;2023-08-12T02:39:56;4.90;;;4.33;;
18661;SDS011;61528;49.456;11.098;2023-08-12T02:42:23;5.13;;;4.63;;
18661;SDS011;61528;49.456;11.098;2023-08-12T02:44:49;9.27;;;5.67;;
18661;SDS011;61528;49.456;11.098;2023-08-12T02:47:16;5.20;;;4.70;;
18661;SDS011;61528;49.456;11.098;2023-08-12T02:49:42;6.23;;;5.07;;
18661;SDS011;61528;49.456;11.098;2023-08-12T02:52:09;10.60;;;5.27;;
18661;SDS011;61528;49.456;11.098;2023-08-12T02:54:35;6.83;;;5.17;;
18661;SDS011;61528;49.456;11.098;2023-08-12T02:57:01;9.53;;;5.90;;
18661;SDS011;61528;49.456;11.098;2023-08-12T02:59:28;12.17;;;5.87;;
18661;SDS011;61528;49.456;11.098;2023-08-12T03:01:55;11.43;;;6.60;;
18661;SDS011;61528;49.456;11.098;2023-08-12T03:04:21;13.43;;;6.90;;
18661;SDS011;61528;49.456;11.098;2023-08-12T03:06:48;10.60;;;6.17;;
18661;SDS011;61528;49.456;11.098;2023-08-12T03:09:14;11.20;;;6.87;;
18661;SDS011;61528;49.456;11.098;2023-08-12T03:11:43;14.57;;;7.20;;
18661;SDS011;61528;49.456;11.098;2023-08-12T03:14:10;15.90;;;6.97;;
18661;SDS011;61528;49.456;11.098;2023-08-12T03:16:36;15.73;;;7.40;;
18661;SDS011;61528;49.456;11.098;2023-08-12T03:19:02;16.53;;;7.27;;
18661;SDS011;61528;49.456;11.098;2023-08-12T03:21:28;16.67;;;7.20;;
18661;SDS011;61528;49.456;11.098;2023-08-12T03:23:55;18.07;;;6.87;;
18661;SDS011;61528;49.456;11.098;2023-08-12T03:26:21;12.20;;;6.67;;
18661;SDS011;61528;49.456;11.098;2023-08-12T03:28:48;16.07;;;6.83;;
18661;SDS011;61528;49.456;11.098;2023-08-12T03:31:14;14.63;;;6.40;;
18661;SDS011;61528;49.456;11.098;2023-08-12T03:33:43;11.77;;;6.47;;
18661;SDS011;61528;49.456;11.098;2023-08-12T03:36:09;9.90;;;5.60;;
18661;SDS011;61528;49.456;11.098;2023-08-12T03:38:36;7.63;;;5.17;;
18661;SDS011;61528;49.456;11.098;2023-08-12T03:41:02;10.83;;;5.80;;
18661;SDS011;61528;49.456;11.098;2023-08-12T03:43:29;10.27;;;5.57;;
18661;SDS011;61528;49.456;11.098;2023-08-12T03:45:56;8.67;;;5.70;;
18661;SDS011;61528;49.456;11.098;2023-08-12T03:48:22;11.20;;;5.30;;
18661;SDS011;61528;49.456;11.098;2023-08-12T03:50:48;7.97;;;4.93;;
18661;SDS011;61528;49.456;11.098;2023-08-12T03:53:15;13.10;;;5.77;;
18661;SDS011;61528;49.456;11.098;2023-08-12T03:55:42;8.13;;;5.43;;
18661;SDS011;61528;49.456;11.098;2023-08-12T03:58:09;11.30;;;6.27;;
18661;SDS011;61528;49.456;11.098;2023-08-12T04:00:35;10.17;;;5.00;;
18661;SDS011;61528;49.456;11.098;2023-08-12T04:03:06;8.10;;;5.00;;
18661;SDS011;61528;49.456;11.098;2023-08-12T04:05:32;7.63;;;4.93;;
18661;SDS011;61528;49.456;11.098;2023-08-12T04:07:58;10.53;;;5.33;;
18661;SDS011;61528;49.456;11.098;2023-08-12T04:10:25;9.63;;;5.53;;
18661;SDS011;61528;49.456;11.098;2023-08-12T04:12:51;7.30;;;4.83;;
18661;SDS011;61528;49.456;11.098;2023-08-12T04:15:18;8.10;;;5.00;;
18661;SDS011;61528;49.456;11.098;2023-08-12T04:17:44;7.10;;;4.70;;
18661;SDS011;61528;49.456;11.098;2023-08-12T04:20:11;10.17;;;5.00;;
18661;SDS011;61528;49.456;11.098;2023-08-12T04:22:37;7.60;;;5.40;;
18661;SDS011;61528;49.456;11.098;2023-08-12T04:25:03;8.57;;;4.87;;
18661;SDS011;61528;49.456;11.098;2023-08-12T04:27:30;10.90;;;6.30;;
18661;SDS011;61528;49.456;11.098;2023-08-12T04:29:57;11.57;;;6.37;;
18661;SDS011;61528;49.456;11.098;2023-08-12T04:32:23;10.60;;;6.23;;
18661;SDS011;61528;49.456;11.098;2023-08-12T04:34:49;10.87;;;5.93;;
18661;SDS011;61528;49.456;11.098;2023-08-12T04:37:15;7.10;;;4.70;;
18661;SDS011;61528;49.456;11.098;2023-08-12T04:39:42;7.73;;;4.67;;
18661;SDS011;61528;49.456;11.098;2023-08-12T04:42:08;4.83;;;4.27;;
18661;SDS011;61528;49.456;11.098;2023-08-12T04:44:35;6.13;;;4.47;;
18661;SDS011;61528;49.456;11.098;2023-08-12T04:47:01;7.50;;;4.60;;
18661;SDS011;61528;49.456;11.098;2023-08-12T04:49:28;4.93;;;4.40;;
18661;SDS011;61528;49.456;11.098;2023-08-12T04:51:54;4.73;;;4.03;;
18661;SDS011;61528;49.456;11.098;2023-08-12T04:54:21;8.30;;;4.73;;
18661;SDS011;61528;49.456;11.098;2023-08-12T04:56:47;5.93;;;4.80;;
18661;SDS011;61528;49.456;11.098;2023-08-12T04:59:14;7.33;;;4.30;;
18661;SDS011;61528;49.456;11.098;2023-08-12T05:01:40;6.83;;;4.47;;
18661;SDS011;61528;49.456;11.098;2023-08-12T05:04:06;6.83;;;4.90;;
18661;SDS011;61528;49.456;11.098;2023-08-12T05:06:33;4.77;;;4.27;;
18661;SDS011;61528;49.456;11.098;2023-08-12T05:08:59;7.10;;;4.53;;
18661;SDS011;61528;49.456;11.098;2023-08-12T05:11:25;7.30;;;4.83;;
18661;SDS011;61528;49.456;11.098;2023-08-12T05:13:51;8.03;;;5.07;;
18661;SDS011;61528;49.456;11.098;2023-08-12T05:16:18;7.83;;;4.87;;
18661;SDS011;61528;49.456;11.098;2023-08-12T05:18:44;5.50;;;4.50;;
18661;SDS011;61528;49.456;11.098;2023-08-12T05:21:11;7.17;;;4.57;;
18661;SDS011;61528;49.456;11.098;2023-08-12T05:23:37;5.63;;;4.13;;
18661;SDS011;61528;49.456;11.098;2023-08-12T05:26:03;6.87;;;4.30;;
18661;SDS011;61528;49.456;11.098;2023-08-12T05:28:30;4.93;;;3.90;;
18661;SDS011;61528;49.456;11.098;2023-08-12T05:30:56;4.70;;;3.87;;
18661;SDS011;61528;49.456;11.098;2023-08-12T05:33:22;5.33;;;4.00;;
18661;SDS011;61528;49.456;11.098;2023-08-12T05:35:49;5.20;;;4.13;;
18661;SDS011;61528;49.456;11.098;2023-08-12T05:38:15;5.97;;;3.53;;
18661;SDS011;61528;49.456;11.098;2023-08-12T05:40:42;3.90;;;3.60;;
18661;SDS011;61528;49.456;11.098;2023-08-12T05:43:08;6.13;;;4.10;;
18661;SDS011;61528;49.456;11.098;2023-08-12T05:45:34;4.23;;;3.70;;
18661;SDS011;61528;49.456;11.098;2023-08-12T05:48:01;4.10;;;3.70;;
18661;SDS011;61528;49.456;11.098;2023-08-12T05:50:27;5.27;;;3.70;;
18661;SDS011;61528;49.456;11.098;2023-08-12T05:52:53;4.50;;;3.67;;
18661;SDS011;61528;49.456;11.098;2023-08-12T05:55:20;5.87;;;3.73;;
18661;SDS011;61528;49.456;11.098;2023-08-12T05:57:46;4.40;;;4.00;;
18661;SDS011;61528;49.456;11.098;2023-08-12T06:00:13;4.40;;;3.40;;
18661;SDS011;61528;49.456;11.098;2023-08-12T06:02:40;5.63;;;3.70;;
18661;SDS011;61528;49.456;11.098;2023-08-12T06:05:06;5.60;;;3.70;;
18661;SDS011;61528;49.456;11.098;2023-08-12T06:07:33;3.80;;;3.40;;
18661;SDS011;61528;49.456;11.098;2023-08-12T06:09:59;4.27;;;3.43;;
18661;SDS011;61528;49.456;11.098;2023-08-12T06:12:26;5.70;;;3.43;;
18661;SDS011;61528;49.456;11.098;2023-08-12T06:14:52;5.23;;;3.70;;
18661;SDS011;61528;49.456;11.098;2023-08-12T06:17:18;4.80;;;3.20;;
18661;SDS011;61528;49.456;11.098;2023-08-12T06:19:45;3.83;;;3.37;;
18661;SDS011;61528;49.456;11.098;2023-08-12T06:22:11;4.13;;;3.33;;
18661;SDS011;61528;49.456;11.098;2023-08-12T06:24:37;4.57;;;3.60;;
18661;SDS011;61528;49.456;11.098;2023-08-12T06:27:03;3.60;;;3.30;;
18661;SDS011;61528;49.456;11.098;2023-08-12T06:29:30;3.87;;;3.50;;
18661;SDS011;61528;49.456;11.098;2023-08-12T06:31:56;3.70;;;3.40;;
18661;SDS011;61528;49.456;11.098;2023-08-12T06:34:23;4.87;;;3.27;;
18661;SDS011;61528;49.456;11.098;2023-08-12T06:36:49;4.73;;;3.07;;
18661;SDS011;61528;49.456;11.098;2023-08-12T06:39:16;5.70;;;3.60;;
18661;SDS011;61528;49.456;11.098;2023-08-12T06:41:43;3.97;;;3.43;;
18661;SDS011;61528;49.456;11.098;2023-08-12T06:44:09;3.60;;;3.30;;
18661;SDS011;61528;49.456;11.098;2023-08-12T06:46:36;3.60;;;3.13;;
18661;SDS011;61528;49.456;11.098;2023-08-12T06:49:03;3.30;;;2.97;;
18661;SDS011;61528;49.456;11.098;2023-08-12T06:51:29;4.80;;;3.57;;
18661;SDS011;61528;49.456;11.098;2023-08-12T06:53:55;4.90;;;3.17;;
18661;SDS011;61528;49.456;11.098;2023-08-12T06:56:22;3.53;;;3.13;;
18661;SDS011;61528;49.456;11.098;2023-08-12T06:58:48;4.50;;;3.40;;
18661;SDS011;61528;49.456;11.098;2023-08-12T07:01:14;3.77;;;3.30;;
18661;SDS011;61528;49.456;11.098;2023-08-12T07:03:42;4.27;;;3.00;;
18661;SDS011;61528;49.456;11.098;2023-08-12T07:06:08;3.80;;;3.03;;
18661;SDS011;61528;49.456;11.098;2023-08-12T07:08:34;3.07;;;2.80;;
18661;SDS011;61528;49.456;11.098;2023-08-12T07:11:00;3.10;;;2.90;;
18661;SDS011;61528;49.456;11.098;2023-08-12T07:13:27;3.10;;;2.80;;
18661;SDS011;61528;49.456;11.098;2023-08-12T07:15:53;3.63;;;3.33;;
18661;SDS011;61528;49.456;11.098;2023-08-12T07:18:20;4.13;;;2.53;;
18661;SDS011;61528;49.456;11.098;2023-08-12T07:20:48;3.30;;;2.97;;
18661;SDS011;61528;49.456;11.098;2023-08-12T07:23:14;3.70;;;3.10;;
18661;SDS011;61528;49.456;11.098;2023-08-12T07:25:41;3.37;;;2.93;;
18661;SDS011;61528;49.456;11.098;2023-08-12T07:28:07;3.50;;;3.20;;
18661;SDS011;61528;49.456;11.098;2023-08-12T07:30:34;3.53;;;2.80;;
18661;SDS011;61528;49.456;11.098;2023-08-12T07:33:01;2.80;;;2.60;;
18661;SDS011;61528;49.456;11.098;2023-08-12T07:35:27;4.27;;;2.97;;
18661;SDS011;61528;49.456;11.098;2023-08-12T07:37:54;3.30;;;3.00;;
18661;SDS011;61528;49.456;11.098;2023-08-12T07:40:20;3.40;;;3.10;;
18661;SDS011;61528;49.456;11.098;2023-08-12T07:42:46;3.40;;;2.77;;
18661;SDS011;61528;49.456;11.098;2023-08-12T07:45:12;3.03;;;2.83;;
18661;SDS011;61528;49.456;11.098;2023-08-12T07:47:39;3.13;;;2.53;;
18661;SDS011;61528;49.456;11.098;2023-08-12T07:50:05;2.97;;;2.70;;
18661;SDS011;61528;49.456;11.098;2023-08-12T07:52:32;2.93;;;2.70;;
18661;SDS011;61528;49.456;11.098;2023-08-12T07:54:58;3.03;;;2.73;;
18661;SDS011;61528;49.456;11.098;2023-08-12T07:57:25;3.37;;;3.17;;
18661;SDS011;61528;49.456;11.098;2023-08-12T07:59:51;5.07;;;2.90;;
18661;SDS011;61528;49.456;11.098;2023-08-12T08:02:17;2.93;;;2.73;;
18661;SDS011;61528;49.456;11.098;2023-08-12T08:04:43;3.27;;;2.97;;
18661;SDS011;61528;49.456;11.098;2023-08-12T08:07:13;4.87;;;3.17;;
18661;SDS011;61528;49.456;11.098;2023-08-12T08:09:40;3.10;;;2.80;;
18661;SDS011;61528;49.456;11.098;2023-08-12T08:12:07;3.13;;;2.83;;
18661;SDS011;61528;49.456;11.098;2023-08-12T08:14:33;3.33;;;3.03;;
18661;SDS011;61528;49.456;11.098;2023-08-12T08:17:00;3.20;;;2.90;;
18661;SDS011;61528;49.456;11.098;2023-08-12T08:19:26;3.47;;;3.10;;
18661;SDS011;61528;49.456;11.098;2023-08-12T08:21:53;2.97;;;2.73;;
18661;SDS011;61528;49.456;11.098;2023-08-12T08:24:19;3.23;;;3.03;;
18661;SDS011;61528;49.456;11.098;2023-08-12T08:26:45;3.37;;;3.10;;
18661;SDS011;61528;49.456;11.098;2023-08-12T08:29:12;2.97;;;2.73;;
18661;SDS011;61528;49.456;11.098;2023-08-12T08:31:38;3.20;;;3.00;;
18661;SDS011;61528;49.456;11.098;2023-08-12T08:34:05;3.03;;;2.83;;
18661;SDS011;61528;49.456;11.098;2023-08-12T08:36:32;3.40;;;3.20;;
18661;SDS011;61528;49.456;11.098;2023-08-12T08:38:58;4.20;;;2.70;;
18661;SDS011;61528;49.456;11.098;2023-08-12T08:41:24;2.67;;;2.47;;
18661;SDS011;61528;49.456;11.098;2023-08-12T08:43:52;2.93;;;2.73;;
18661;SDS011;61528;49.456;11.098;2023-08-12T08:46:19;4.60;;;2.67;;
18661;SDS011;61528;49.456;11.098;2023-08-12T08:48:45;3.07;;;2.83;;
18661;SDS011;61528;49.456;11.098;2023-08-12T08:51:12;3.60;;;3.17;;
18661;SDS011;61528;49.456;11.098;2023-08-12T08:53:39;3.17;;;2.80;;
18661;SDS011;61528;49.456;11.098;2023-08-12T08:56:06;2.60;;;2.40;;
18661;SDS011;61528;49.456;11.098;2023-08-12T08:58:33;3.07;;;2.80;;
18661;SDS011;61528;49.456;11.098;2023-08-12T09:00:59;2.87;;;2.67;;
18661;SDS011;61528;49.456;11.098;2023-08-12T09:03:26;3.03;;;2.83;;
18661;SDS011;61528;49.456;11.098;2023-08-12T09:05:52;3.43;;;2.60;;
18661;SDS011;61528;49.456;11.098;2023-08-12T09:08:19;3.33;;;2.90;;
18661;SDS011;61528;49.456;11.098;2023-08-12T09:10:45;3.20;;;3.00;;
18661;SDS011;61528;49.456;11.098;2023-08-12T09:13:12;2.90;;;2.60;;
18661;SDS011;61528;49.456;11.098;2023-08-12T09:15:40;3.83;;;2.97;;
18661;SDS011;61528;49.456;11.098;2023-08-12T09:18:06;3.03;;;2.80;;
18661;SDS011;61528;49.456;11.098;2023-08-12T09:20:33;3.07;;;2.50;;
18661;SDS011;61528;49.456;11.098;2023-08-12T09:23:00;2.90;;;2.67;;
18661;SDS011;61528;49.456;11.098;2023-08-12T09:25:27;2.97;;;2.77;;
18661;SDS011;61528;49.456;11.098;2023-08-12T09:28:00;3.00;;;2.80;;
18661;SDS011;61528;49.456;11.098;2023-08-12T09:30:29;3.53;;;3.23;;
18661;SDS011;61528;49.456;11.098;2023-08-12T09:33:00;2.90;;;2.70;;
18661;SDS011;61528;49.456;11.098;2023-08-12T09:35:37;3.20;;;2.90;;
18661;SDS011;61528;49.456;11.098;2023-08-12T09:38:04;3.23;;;2.93;;
18661;SDS011;61528;49.456;11.098;2023-08-12T09:40:31;3.90;;;2.70;;
18661;SDS011;61528;49.456;11.098;2023-08-12T09:42:58;4.03;;;2.83;;
18661;SDS011;61528;49.456;11.098;2023-08-12T09:45:25;2.90;;;2.70;;
18661;SDS011;61528;49.456;11.098;2023-08-12T09:47:54;3.80;;;3.07;;
18661;SDS011;61528;49.456;11.098;2023-08-12T09:50:22;3.17;;;2.87;;
18661;SDS011;61528;49.456;11.098;2023-08-12T09:52:49;2.93;;;2.73;;
18661;SDS011;61528;49.456;11.098;2023-08-12T09:55:16;3.33;;;2.97;;
18661;SDS011;61528;49.456;11.098;2023-08-12T09:57:43;3.00;;;2.80;;
18661;SDS011;61528;49.456;11.098;2023-08-12T10:00:10;3.23;;;2.90;;
18661;SDS011;61528;49.456;11.098;2023-08-12T10:02:44;2.90;;;2.70;;
18661;SDS011;61528;49.456;11.098;2023-08-12T10:05:21;6.43;;;3.20;;
18661;SDS011;61528;49.456;11.098;2023-08-12T10:07:48;2.90;;;2.70;;
18661;SDS011;61528;49.456;11.098;2023-08-12T10:10:15;3.47;;;3.10;;
18661;SDS011;61528;49.456;11.098;2023-08-12T10:12:41;3.07;;;2.80;;
18661;SDS011;61528;49.456;11.098;2023-08-12T10:15:08;3.07;;;2.80;;
18661;SDS011;61528;49.456;11.098;2023-08-12T10:17:36;3.03;;;2.73;;
18661;SDS011;61528;49.456;11.098;2023-08-12T10:20:03;3.10;;;2.80;;
18661;SDS011;61528;49.456;11.098;2023-08-12T10:22:31;3.67;;;3.37;;
18661;SDS011;61528;49.456;11.098;2023-08-12T10:24:59;2.87;;;2.60;;
18661;SDS011;61528;49.456;11.098;2023-08-12T10:27:27;3.33;;;3.00;;
18661;SDS011;61528;49.456;11.098;2023-08-12T10:29:56;3.40;;;3.07;;
18661;SDS011;61528;49.456;11.098;2023-08-12T10:32:25;3.30;;;2.77;;
18661;SDS011;61528;49.456;11.098;2023-08-12T10:34:55;3.40;;;3.10;;
18661;SDS011;61528;49.456;11.098;2023-08-12T10:37:23;3.50;;;3.20;;
18661;SDS011;61528;49.456;11.098;2023-08-12T10:39:49;3.00;;;2.80;;
18661;SDS011;61528;49.456;11.098;2023-08-12T10:42:39;3.47;;;2.70;;
18661;SDS011;61528;49.456;11.098;2023-08-12T10:45:03;3.20;;;2.90;;
18661;SDS011;61528;49.456;11.098;2023-08-12T10:47:36;3.00;;;2.80;;
18661;SDS011;61528;49.456;11.098;2023-08-12T10:50:03;3.40;;;3.00;;
18661;SDS011;61528;49.456;11.098;2023-08-12T10:52:31;3.17;;;2.87;;
18661;SDS011;61528;49.456;11.098;2023-08-12T10:55:19;4.40;;;2.90;;
18661;SDS011;61528;49.456;11.098;2023-08-12T10:57:44;4.43;;;2.90;;
18661;SDS011;61528;49.456;11.098;2023-08-12T11:00:13;3.27;;;3.00;;
18661;SDS011;61528;49.456;11.098;2023-08-12T11:02:40;3.73;;;2.93;;
18661;SDS011;61528;49.456;11.098;2023-08-12T11:05:10;4.17;;;3.33;;
18661;SDS011;61528;49.456;11.098;2023-08-12T11:10:18;3.43;;;3.13;;
18661;SDS011;61528;49.456;11.098;2023-08-12T11:12:53;3.57;;;3.27;;
18661;SDS011;61528;49.456;11.098;2023-08-12T11:15:36;3.50;;;3.20;;
18661;SDS011;61528;49.456;11.098;2023-08-12T11:18:09;3.20;;;3.00;;
18661;SDS011;61528;49.456;11.098;2023-08-12T11:20:36;3.28;;;3.03;;
18661;SDS011;61528;49.456;11.098;2023-08-12T11:23:03;4.70;;;3.27;;
18661;SDS011;61528;49.456;11.098;2023-08-12T11:25:30;3.50;;;2.90;;
18661;SDS011;61528;49.456;11.098;2023-08-12T11:27:56;4.57;;;3.10;;
18661;SDS011;61528;49.456;11.098;2023-08-12T11:30:23;3.55;;;3.30;;
18661;SDS011;61528;49.456;11.098;2023-08-12T11:32:50;3.88;;;3.47;;
18661;SDS011;61528;49.456;11.098;2023-08-12T11:35:20;3.95;;;3.15;;
18661;SDS011;61528;49.456;11.098;2023-08-12T11:37:48;3.20;;;2.90;;
18661;SDS011;61528;49.456;11.098;2023-08-12T11:40:15;3.53;;;3.33;;
18661;SDS011;61528;49.456;11.098;2023-08-12T11:42:43;3.13;;;2.92;;
18661;SDS011;61528;49.456;11.098;2023-08-12T11:45:10;4.38;;;3.53;;
18661;SDS011;61528;49.456;11.098;2023-08-12T11:47:38;3.50;;;3.20;;
18661;SDS011;61528;49.456;11.098;2023-08-12T11:50:05;3.72;;;3.35;;
18661;SDS011;61528;49.456;11.098;2023-08-12T11:52:31;3.40;;;2.92;;
18661;SDS011;61528;49.456;11.098;2023-08-12T11:54:58;3.75;;;3.40;;
18661;SDS011;61528;49.456;11.098;2023-08-12T11:57:26;3.70;;;3.40;;
18661;SDS011;61528;49.456;11.098;2023-08-12T11:59:59;3.55;;;3.28;;
18661;SDS011;61528;49.456;11.098;2023-08-12T12:02:25;3.67;;;3.38;;
18661;SDS011;61528;49.456;11.098;2023-08-12T12:04:52;3.67;;;3.40;;
18661;SDS011;61528;49.456;11.098;2023-08-12T12:07:19;4.85;;;3.17;;
18661;SDS011;61528;49.456;11.098;2023-08-12T12:09:46;3.40;;;3.20;;
18661;SDS011;61528;49.456;11.098;2023-08-12T12:12:13;3.45;;;3.15;;
18661;SDS011;61528;49.456;11.098;2023-08-12T12:14:39;3.75;;;3.40;;
18661;SDS011;61528;49.456;11.098;2023-08-12T12:17:09;3.38;;;3.08;;
18661;SDS011;61528;49.456;11.098;2023-08-12T12:19:36;4.20;;;3.75;;
18661;SDS011;61528;49.456;11.098;2023-08-12T12:22:03;3.53;;;3.33;;
18661;SDS011;61528;49.456;11.098;2023-08-12T12:24:30;3.58;;;3.35;;
18661;SDS011;61528;49.456;11.098;2023-08-12T12:26:56;4.13;;;3.83;;
18661;SDS011;61528;49.456;11.098;2023-08-12T12:29:23;4.13;;;3.63;;
18661;SDS011;61528;49.456;11.098;2023-08-12T12:31:49;3.92;;;3.63;;
18661;SDS011;61528;49.456;11.098;2023-08-12T12:34:15;3.58;;;3.28;;
18661;SDS011;61528;49.456;11.098;2023-08-12T12:36:43;3.45;;;3.15;;
18661;SDS011;61528;49.456;11.098;2023-08-12T12:39:09;3.53;;;3.13;;
18661;SDS011;61528;49.456;11.098;2023-08-12T12:41:36;3.60;;;3.30;;
18661;SDS011;61528;49.456;11.098;2023-08-12T12:44:02;3.40;;;3.08;;
18661;SDS011;61528;49.456;11.098;2023-08-12T12:46:29;7.68;;;3.47;;
18661;SDS011;61528;49.456;11.098;2023-08-12T12:48:55;3.45;;;3.22;;
18661;SDS011;61528;49.456;11.098;2023-08-12T12:51:22;4.00;;;3.00;;
18661;SDS011;61528;49.456;11.098;2023-08-12T12:53:48;4.05;;;3.75;;
18661;SDS011;61528;49.456;11.098;2023-08-12T12:56:15;3.88;;;3.20;;
18661;SDS011;61528;49.456;11.098;2023-08-12T12:58:41;4.82;;;3.45;;
18661;SDS011;61528;49.456;11.098;2023-08-12T13:01:07;3.38;;;3.08;;
18661;SDS011;61528;49.456;11.098;2023-08-12T13:03:34;4.30;;;2.92;;
18661;SDS011;61528;49.456;11.098;2023-08-12T13:06:00;3.50;;;3.20;;
18661;SDS011;61528;49.456;11.098;2023-08-12T13:08:28;4.43;;;3.38;;
18661;SDS011;61528;49.456;11.098;2023-08-12T13:10:55;3.38;;;3.17;;
18661;SDS011;61528;49.456;11.098;2023-08-12T13:13:21;3.13;;;2.92;;
18661;SDS011;61528;49.456;11.098;2023-08-12T13:15:47;3.22;;;2.90;;
18661;SDS011;61528;49.456;11.098;2023-08-12T13:18:14;3.30;;;3.10;;
18661;SDS011;61528;49.456;11.098;2023-08-12T13:20:40;5.32;;;3.00;;
18661;SDS011;61528;49.456;11.098;2023-08-12T13:23:07;6.30;;;2.70;;
18661;SDS011;61528;49.456;11.098;2023-08-12T13:25:36;3.63;;;3.00;;
18661;SDS011;61528;49.456;11.098;2023-08-12T13:28:03;3.47;;;3.17;;
18661;SDS011;61528;49.456;11.098;2023-08-12T13:30:30;3.25;;;2.95;;
18661;SDS011;61528;49.456;11.098;2023-08-12T13:32:56;3.10;;;2.70;;
18661;SDS011;61528;49.456;11.098;2023-08-12T13:35:22;3.25;;;2.95;;
18661;SDS011;61528;49.456;11.098;2023-08-12T13:37:49;2.92;;;2.72;;
18661;SDS011;61528;49.456;11.098;2023-08-12T13:40:19;5.15;;;3.08;;
18661;SDS011;61528;49.456;11.098;2023-08-12T13:42:45;2.60;;;2.50;;
18661;SDS011;61528;49.456;11.098;2023-08-12T13:45:12;4.32;;;3.08;;
18661;SDS011;61528;49.456;11.098;2023-08-12T13:47:39;2.80;;;2.60;;
18661;SDS011;61528;49.456;11.098;2023-08-12T13:50:05;3.67;;;3.08;;
18661;SDS011;61528;49.456;11.098;2023-08-12T13:52:32;3.38;;;2.60;;
18661;SDS011;61528;49.456;11.098;2023-08-12T13:54:58;3.63;;;3.33;;
18661;SDS011;61528;49.456;11.098;2023-08-12T13:57:25;2.97;;;2.72;;
18661;SDS011;61528;49.456;11.098;2023-08-12T13:59:51;3.38;;;3.00;;
18661;SDS011;61528;49.456;11.098;2023-08-12T14:02:17;6.43;;;3.10;;
18661;SDS011;61528;49.456;11.098;2023-08-12T14:04:44;5.28;;;3.10;;
18661;SDS011;61528;49.456;11.098;2023-08-12T14:07:10;3.38;;;2.90;;
18661;SDS011;61528;49.456;11.098;2023-08-12T14:09:36;3.38;;;3.00;;
18661;SDS011;61528;49.456;11.098;2023-08-12T14:12:03;3.67;;;3.05;;
18661;SDS011;61528;49.456;11.098;2023-08-12T14:14:29;2.95;;;2.65;;
18661;SDS011;61528;49.456;11.098;2023-08-12T14:16:56;6.03;;;2.70;;
18661;SDS011;61528;49.456;11.098;2023-08-12T14:19:22;4.72;;;2.55;;
18661;SDS011;61528;49.456;11.098;2023-08-12T14:21:48;2.97;;;2.40;;
18661;SDS011;61528;49.456;11.098;2023-08-12T14:24:15;3.63;;;2.47;;
18661;SDS011;61528;49.456;11.098;2023-08-12T14:26:41;3.77;;;2.20;;
18661;SDS011;61528;49.456;11.098;2023-08-12T14:29:07;2.63;;;2.08;;
18661;SDS011;61528;49.456;11.098;2023-08-12T14:31:34;4.63;;;2.00;;
18661;SDS011;61528;49.456;11.098;2023-08-12T14:34:01;2.40;;;1.53;;
18661;SDS011;61528;49.456;11.098;2023-08-12T14:36:28;6.83;;;1.37;;
18661;SDS011;61528;49.456;11.098;2023-08-12T14:38:55;2.50;;;1.40;;